Flight Track Log - Related Links

Times and Time Zones

All times are in EDT time to prevent confusion due to time zone crossing. See the N724AE flight status page for this flight to view local times or setup timezone preferences in your user account.

Time Position Orientation Groundspeed Altitude Reporting Facility
EDT Latitude Longitude Course Direction KTS MPH feet Rate Location/Type
Fri 02:55:17 PM 32.9500 -97.0333 84° East 193 222 3,800  Level Dallas / Fort Worth TRACON
Fri 02:56:00 PM 32.6840 -96.9365 103° East  Level FlightAware Approximate
Fri 02:57:00 PM 32.6833 -96.7862 90° East  Level FlightAware Approximate
Fri 02:57:15 PM 33.0203 -96.9403 48° Northeast 217 250 9,200  Level Fort Worth Center
Fri 02:58:00 PM 32.7104 -96.6393 77° East  Level FlightAware Approximate
Fri 02:58:15 PM 32.9908 -96.8439 110° East 278 320 10,000  Level Fort Worth Center
Fri 02:59:00 PM 32.7354 -96.4919 84° East  Level FlightAware Approximate
Fri 02:59:15 PM 32.9317 -96.7228 120° Southeast 333 383 10,800  Level Fort Worth Center
Fri 03:00:00 PM 32.7479 -96.3421 84° East  Level FlightAware Approximate
Fri 03:00:15 PM 32.8872 -96.6169 117° Southeast 386 444 12,600  Level Fort Worth Center
Fri 03:01:15 PM 32.8300 -96.4889 118° Southeast 397 457 15,000 2,100 Climbing Fort Worth Center
Fri 03:02:15 PM 32.7833 -96.3856 118° Southeast 397 457 16,800 1,700 Climbing Fort Worth Center
Fri 03:03:15 PM 32.7444 -96.2428 108° East 391 450 18,400 1,600 Climbing Fort Worth Center
Fri 03:04:15 PM 32.7267 -96.1219 100° East 414 476 20,000 1,700 Climbing Fort Worth Center
Fri 03:05:15 PM 32.7039 -95.9667 100° East 428 493 21,800 2,150 Climbing Fort Worth Center
Fri 03:06:15 PM 32.6814 -95.8214 100° East 433 498 24,300 1,900 Climbing Fort Worth Center
Fri 03:07:15 PM 32.6589 -95.6911 102° East 433 498 25,600 1,400 Climbing Fort Worth Center
Fri 03:08:15 PM 32.6650 -95.5453 87° East 444 511 27,100 1,450 Climbing Fort Worth Center
Fri 03:09:15 PM 32.6772 -95.3919 85° East 455 524 28,500 950 Climbing Fort Worth Center
Fri 03:10:15 PM 32.6806 -95.2094 89° East 468 539 29,000 250 Climbing Fort Worth Center
Fri 03:11:15 PM 32.6942 -95.0386 85° East 502 578 29,000  Level Fort Worth Center
Fri 03:12:15 PM 32.7072 -94.8606 85° East 523 602 29,000  Level Fort Worth Center
Fri 03:13:15 PM 32.6767 -94.6911 102° East 530 610 29,000  Level Fort Worth Center
Fri 03:14:15 PM 32.6208 -94.5300 112° Southeast 520 598 29,000  Level Fort Worth Center
Fri 03:15:15 PM 32.5692 -94.3714 111° Southeast 520 598 29,000  Level Fort Worth Center
Fri 03:16:15 PM 32.5131 -94.2108 112° Southeast 520 598 29,000  Level Fort Worth Center
Fri 03:17:15 PM 32.4564 -94.0478 112° Southeast 520 598 29,000 -550 Level Fort Worth Center
Fri 03:18:15 PM 32.4042 -93.8922 112° Southeast 527 606 27,900 -1,500 Descending Fort Worth Center
Fri 03:19:15 PM 32.3494 -93.7297 112° Southeast 527 606 26,000 -1,950 Descending Fort Worth Center
Fri 03:20:15 PM 32.2908 -93.5797 115° Southeast 521 600 24,000 -2,230 Descending Fort Worth Center
Fri 03:22:18 PM 32.1000 -93.3819 139° Southeast 448 516 19,200 -2,226 Descending Houston Center
Fri 03:23:21 PM 32.0097 -93.2836 137° Southeast 445 512 17,100 -2,112 Descending Houston Center
Fri 03:24:23 PM 31.9222 -93.1894 138° Southeast 437 503 14,800 -1,887 Descending Houston Center
Fri 03:25:25 PM 31.8381 -93.0981 137° Southeast 425 489 13,200 -1,452 Descending Houston Center
Fri 03:26:27 PM 31.7542 -93.0106 138° Southeast 414 476 11,800 -1,551 Descending Houston Center
Fri 03:26:54 PM 31.7094 -92.9600 136° Southeast 390 449 10,900 -1,161 Descending Houston Center
Fri 03:27:29 PM 31.6797 -92.9269 137° Southeast 388 447 10,600 -1,059 Descending Houston Center
Fri 03:28:02 PM 31.6331 -92.8783 138° Southeast 318 366 9,700 -1,548 Descending Houston Center
Fri 03:28:31 PM 31.6000 -92.8406 136° Southeast 336 387 9,000 -1,400 Descending Houston Center
Fri 03:29:02 PM 31.5700 -92.8081 137° Southeast 317 365 8,300 -1,452 Descending Houston Center
Fri 03:29:33 PM 31.5372 -92.7736 138° Southeast 318 366 7,500 -1,574 Descending Houston Center
Fri 03:30:03 PM 31.5050 -92.7406 139° Southeast 301 346 6,700 -1,429 Descending Houston Center
Fri 03:30:36 PM 31.4725 -92.7175 149° Southeast 300 345 6,000 -1,500 Descending Houston Center
Fri 03:31:03 PM 31.4325 -92.6906 150° Southeast 286 329 5,200 -1,355 Descending Houston Center
Fri 03:31:38 PM 31.4044 -92.6681 146° Southeast 292 336 4,600 -1,082 Descending Houston Center
Fri 03:32:04 PM 31.3706 -92.6400 145° Southeast 277 319 4,100 -1,161 Descending Houston Center
Fri 03:32:40 PM 31.3472 -92.6189 142° Southeast 273 314 3,400 -1,167 Descending Houston Center

Login

Don't have an account? Register now (free) for customized features, flight alerts, and more!